الصفحة الرئيسية
METAR-TAF:

METAR-TAF

مطار :

هافانا, كوبا

مطار خوسيه مارتي الدولي

دائرة عرض: 22-59N, خط طول: 082-24W, ارتفاع: 59 متر

مراقبة الطقس الحالي

تاريخ ووقت الإصدار 42 دقيقة قبل الساعة 16:55UTC
ريح 12 عقدة من الشمال/الشمال الشرقي, الاتجاه يتراوح بين الشمال و الشرق/الشمال الشرقي
درجة الحرارة 25°درجة مئوية
الرطوبة 69%
ضغط 1022 hPa
الرؤية: 9000 متر
غيوم متفرقة على ارتفاع 3000 قدم

METAR: MUHA 161655Z 03012KT 360V060 9000 SCT030 25/19 Q1022

زمن: 12:37 (17:37 UTC)

توقعات

تاريخ ووقت الإصدار 37 دقيقة قبل الساعة 17:00UTC
التوقعات صالحة من16 الساعة 18 UTC إلى 17 الساعة 18 UTC
ريح 14 عقدة من الشمال الشرقي
الرؤية: 9000 متر
غيوم متفرقة على ارتفاع 3000 قدم
مؤقت
من 16 الساعة 19 UTC إلى 16 الساعة 23 UTC
الرؤية: 5000 متر
غيوم مفككة على ارتفاع 2000 قدم
مطر
أصبح
من 17 الساعة 01 UTC إلى 17 الساعة 03 UTC
ريح 8 عقدة من الشمال/الشمال الشرقي
أصبح
من 17 الساعة 13 UTC إلى 17 الساعة 15 UTC
ريح 14 عقدة من الشمال/الشمال الشرقي

TAF: MUHA 161700Z 1618/1718 04014KT 9000 SCT030 TEMPO 1619/1623 5000 RA BKN020 BECMG 1701/1703 03008KT BECMG 1713/1715 02014KT

أرصاد الطقس والتوقعات من أكثر من 4000 مطار (تقارير الطقس للمطار METAR والتنبؤ بالطقس بالمطارTAF).

المحطات المتاحة هي النقط الصفراء والحمراء على الخريطة.

حرك المؤشر فوق النقطة لمعرفة اسم المحطة.

ثم انقر لمعرفة أرصاد وتوقعات الطقس.

لتغيير الخارطة: اضغط على الأزرار الخضراء مع رمز الصليب الأسود للتكبير. على الزر الأخضر مع شرطة للتصغير، أو على الأسهم الخضراء للخرائط المجاورة.


METAR-TAF: